createdAt,value
2023-03-10T00:00:28.963Z,40.23
2023-03-10T00:02:55.533Z,40.05
2023-03-10T00:05:22.158Z,40.01
2023-03-10T00:07:50.213Z,40.05
2023-03-10T00:10:17.678Z,39.90
2023-03-10T00:12:44.248Z,40.25
2023-03-10T00:15:11.186Z,40.78
2023-03-10T00:17:38.021Z,40.48
2023-03-10T00:20:07.952Z,40.40
2023-03-10T00:22:35.436Z,40.31
2023-03-10T00:25:02.293Z,40.21
2023-03-10T00:27:29.219Z,39.98
2023-03-10T00:29:55.935Z,40.00
2023-03-10T00:32:22.657Z,39.88
2023-03-10T00:34:49.311Z,39.86
2023-03-10T00:37:16.043Z,39.51
2023-03-10T00:39:42.643Z,39.64
2023-03-10T00:42:09.274Z,39.28
2023-03-10T00:44:35.831Z,39.51
2023-03-10T00:47:02.498Z,39.20
2023-03-10T00:49:29.010Z,39.11
2023-03-10T00:51:56.276Z,39.04
2023-03-10T00:54:22.802Z,39.14
2023-03-10T00:56:49.377Z,39.55
2023-03-10T00:59:15.873Z,39.57
2023-03-10T01:01:42.700Z,39.83
2023-03-10T01:04:13.294Z,39.69
2023-03-10T01:06:40.570Z,40.03
2023-03-10T01:09:07.756Z,40.37
2023-03-10T01:11:36.701Z,40.19
2023-03-10T01:14:05.508Z,40.14
2023-03-10T01:16:32.331Z,40.21
2023-03-10T01:18:59.655Z,40.25
2023-03-10T01:21:33.220Z,40.66
2023-03-10T01:24:00.781Z,40.59
2023-03-10T01:26:28.445Z,40.33
2023-03-10T01:28:55.072Z,40.12
2023-03-10T01:31:21.968Z,40.65
2023-03-10T01:33:48.561Z,40.61
2023-03-10T01:36:21.940Z,40.48
2023-03-10T01:38:49.273Z,40.82
2023-03-10T01:41:16.908Z,40.21
2023-03-10T01:43:45.809Z,40.59
2023-03-10T01:46:31.469Z,40.73
2023-03-10T01:49:17.568Z,41.27
2023-03-10T01:51:50.478Z,41.06
2023-03-10T01:54:22.818Z,41.65
2023-03-10T01:56:52.068Z,41.36
2023-03-10T01:59:19.773Z,40.43
2023-03-10T02:01:46.679Z,40.60
2023-03-10T02:04:24.822Z,40.84
2023-03-10T02:06:51.955Z,41.69
2023-03-10T02:09:20.832Z,42.39
2023-03-10T02:11:48.261Z,42.47
2023-03-10T02:14:15.153Z,41.32
2023-03-10T02:16:42.135Z,40.91
2023-03-10T02:19:17.074Z,41.58
2023-03-10T02:22:03.782Z,40.43
2023-03-10T02:24:49.148Z,40.84
2023-03-10T02:27:24.583Z,40.89
2023-03-10T02:30:14.581Z,40.32
2023-03-10T02:32:44.388Z,40.79
2023-03-10T02:35:12.352Z,41.42
2023-03-10T02:37:47.349Z,42.41
2023-03-10T02:40:34.645Z,42.09
2023-03-10T02:43:27.530Z,42.03
2023-03-10T02:46:02.969Z,42.50
2023-03-10T02:48:32.988Z,40.62
2023-03-10T02:51:06.468Z,40.50
2023-03-10T02:53:33.190Z,40.38
2023-03-10T02:56:00.140Z,40.37
2023-03-10T02:58:29.930Z,40.43
2023-03-10T03:00:56.828Z,39.59
2023-03-10T03:03:24.166Z,38.97
2023-03-10T03:05:51.191Z,39.08
2023-03-10T03:08:18.946Z,38.92
2023-03-10T03:10:45.910Z,38.78
2023-03-10T03:13:12.848Z,38.26
2023-03-10T03:15:39.885Z,38.18
2023-03-10T03:18:07.689Z,38.23
2023-03-10T03:20:37.676Z,38.09
2023-03-10T03:23:05.060Z,38.18
2023-03-10T03:25:36.646Z,38.58
2023-03-10T03:28:05.490Z,38.04
2023-03-10T03:30:33.147Z,37.76
2023-03-10T03:33:02.296Z,37.58
2023-03-10T03:35:32.181Z,37.93
2023-03-10T03:37:59.060Z,37.81
2023-03-10T03:40:30.125Z,37.82
2023-03-10T03:42:57.222Z,37.81
2023-03-10T03:45:26.453Z,37.66
2023-03-10T03:47:55.075Z,37.59
2023-03-10T03:50:22.429Z,37.25
2023-03-10T03:52:52.231Z,37.56
2023-03-10T03:55:21.565Z,37.11
2023-03-10T03:57:50.913Z,37.01
2023-03-10T04:00:20.622Z,37.49
2023-03-10T04:02:50.659Z,37.40
2023-03-10T04:05:18.283Z,37.55
2023-03-10T04:07:46.047Z,37.54
2023-03-10T04:10:16.192Z,37.10
2023-03-10T04:12:43.053Z,37.30
2023-03-10T04:15:09.939Z,37.44
2023-03-10T04:17:36.662Z,37.22
2023-03-10T04:20:07.894Z,37.04
2023-03-10T04:22:38.237Z,36.92
2023-03-10T04:25:07.223Z,36.61
2023-03-10T04:27:35.530Z,36.37
2023-03-10T04:30:04.407Z,36.03
2023-03-10T04:32:33.098Z,35.64
2023-03-10T04:35:00.848Z,35.85
2023-03-10T04:37:27.560Z,35.81
2023-03-10T04:39:54.866Z,35.71
2023-03-10T04:42:21.483Z,36.10
2023-03-10T04:44:48.067Z,36.04
2023-03-10T04:47:15.071Z,37.45
2023-03-10T04:49:41.878Z,37.43
2023-03-10T04:52:11.398Z,37.28
2023-03-10T04:54:38.087Z,37.88
2023-03-10T04:57:04.650Z,37.75
2023-03-10T04:59:31.398Z,37.54
2023-03-10T05:01:58.057Z,37.70
2023-03-10T05:04:24.661Z,37.62
2023-03-10T05:06:53.243Z,37.60
2023-03-10T05:09:27.669Z,37.71
2023-03-10T05:11:54.200Z,37.55
2023-03-10T05:14:20.840Z,39.22
2023-03-10T05:16:48.696Z,39.08
2023-03-10T05:19:15.396Z,37.93
2023-03-10T05:21:42.210Z,39.05
2023-03-10T05:24:09.358Z,38.87
2023-03-10T05:26:35.956Z,39.87
2023-03-10T05:29:03.743Z,40.11
2023-03-10T05:31:53.317Z,42.05
2023-03-10T05:34:27.124Z,40.42
2023-03-10T05:36:57.227Z,40.22
2023-03-10T05:39:24.516Z,41.22
2023-03-10T05:41:54.176Z,41.10
2023-03-10T05:44:22.551Z,41.20
2023-03-10T05:46:49.722Z,41.13
2023-03-10T05:49:16.745Z,40.93
2023-03-10T05:51:43.571Z,42.08
2023-03-10T05:54:11.757Z,41.96
2023-03-10T05:56:38.288Z,42.38
2023-03-10T05:59:07.083Z,41.54
2023-03-10T06:01:36.279Z,41.33
2023-03-10T06:04:03.686Z,41.07
2023-03-10T06:06:30.645Z,40.77
2023-03-10T06:08:57.357Z,41.41
2023-03-10T06:11:24.049Z,40.99
2023-03-10T06:13:50.836Z,40.89
2023-03-10T06:16:17.594Z,41.98
2023-03-10T06:18:44.490Z,41.51
2023-03-10T06:21:14.207Z,41.16
2023-03-10T06:23:41.098Z,41.58
2023-03-10T06:26:15.089Z,41.27
2023-03-10T06:28:42.854Z,41.49
2023-03-10T06:31:17.538Z,41.12
2023-03-10T06:33:44.373Z,41.42
2023-03-10T06:36:13.637Z,41.16
2023-03-10T06:38:40.897Z,41.15
2023-03-10T06:41:07.744Z,41.39
2023-03-10T06:43:35.062Z,40.94
2023-03-10T06:46:04.952Z,41.83
2023-03-10T06:48:31.949Z,42.00
2023-03-10T06:50:58.552Z,41.48
2023-03-10T06:53:26.927Z,40.89
2023-03-10T06:56:02.153Z,40.95
2023-03-10T06:58:29.768Z,41.19
2023-03-10T07:00:56.387Z,41.49
2023-03-10T07:03:25.964Z,41.01
2023-03-10T07:05:53.057Z,40.82
2023-03-10T07:08:19.624Z,40.43
2023-03-10T07:10:46.224Z,40.25
2023-03-10T07:13:17.163Z,40.58
2023-03-10T07:15:45.440Z,40.26
2023-03-10T07:18:13.177Z,40.16
2023-03-10T07:20:47.740Z,39.69
2023-03-10T07:23:14.531Z,40.98
2023-03-10T07:25:41.512Z,40.71
2023-03-10T07:28:08.290Z,40.25
2023-03-10T07:30:35.392Z,39.90
2023-03-10T07:33:02.032Z,40.95
2023-03-10T07:35:28.706Z,40.04
2023-03-10T07:37:55.516Z,39.57
2023-03-10T07:40:25.166Z,38.86
2023-03-10T07:42:54.521Z,38.76
2023-03-10T07:45:22.845Z,39.35
2023-03-10T07:47:53.935Z,39.17
2023-03-10T07:50:21.625Z,38.93
2023-03-10T07:52:48.196Z,40.05
2023-03-10T07:55:14.874Z,38.39
2023-03-10T07:57:41.507Z,38.45
2023-03-10T08:00:09.222Z,38.04
2023-03-10T08:02:39.871Z,37.17
2023-03-10T08:05:07.539Z,37.38
2023-03-10T08:07:34.329Z,37.67
2023-03-10T08:10:00.997Z,37.50
2023-03-10T08:12:27.597Z,37.00
2023-03-10T08:14:54.165Z,36.29
2023-03-10T08:17:21.021Z,36.34
2023-03-10T08:19:47.691Z,36.81
2023-03-10T08:22:14.251Z,37.11
2023-03-10T08:24:40.780Z,37.05
2023-03-10T08:27:07.400Z,36.77
2023-03-10T08:29:34.131Z,36.48
2023-03-10T08:32:00.847Z,36.77
2023-03-10T08:34:32.788Z,36.60
2023-03-10T08:37:00.750Z,36.68
2023-03-10T08:39:28.385Z,36.47
2023-03-10T08:41:55.787Z,36.12
2023-03-10T08:44:22.539Z,36.18
2023-03-10T08:46:50.312Z,36.49
2023-03-10T08:49:19.448Z,36.66
2023-03-10T08:51:46.021Z,37.29
2023-03-10T08:54:15.492Z,36.86
2023-03-10T08:56:42.097Z,36.45
2023-03-10T08:59:08.675Z,35.32
2023-03-10T09:01:37.200Z,34.85
2023-03-10T09:04:06.085Z,35.60
2023-03-10T09:06:33.686Z,36.89
2023-03-10T09:09:00.915Z,35.77
2023-03-10T09:11:31.586Z,35.22
2023-03-10T09:13:59.447Z,35.19
2023-03-10T09:16:26.639Z,34.62
2023-03-10T09:18:53.249Z,34.49
2023-03-10T09:21:20.495Z,33.53
2023-03-10T09:23:49.112Z,32.77
2023-03-10T09:26:16.148Z,32.27
2023-03-10T09:28:42.868Z,31.35
2023-03-10T09:31:14.767Z,30.04
2023-03-10T09:33:41.405Z,29.86
2023-03-10T09:36:08.616Z,28.88
2023-03-10T09:38:36.194Z,28.27
2023-03-10T09:41:03.132Z,28.94
2023-03-10T09:43:38.646Z,28.97
2023-03-10T09:46:31.903Z,28.15
2023-03-10T09:49:21.431Z,28.81
2023-03-10T09:51:49.462Z,28.80
2023-03-10T09:54:33.362Z,29.56
2023-03-10T09:57:00.550Z,29.09
2023-03-10T09:59:40.878Z,29.69
2023-03-10T10:02:22.216Z,29.58
2023-03-10T10:04:53.751Z,31.48
2023-03-10T10:07:24.834Z,32.03
2023-03-10T10:10:05.656Z,31.58
2023-03-10T10:12:32.591Z,33.61
2023-03-10T10:15:06.492Z,36.89
2023-03-10T10:17:56.643Z,37.96
2023-03-10T10:20:50.320Z,38.53
2023-03-10T10:23:27.788Z,40.40
2023-03-10T10:25:54.983Z,39.47
2023-03-10T10:28:34.838Z,41.13
2023-03-10T10:31:23.206Z,40.50
2023-03-10T10:34:07.868Z,41.39
2023-03-10T10:36:37.423Z,45.32
2023-03-10T10:39:28.441Z,46.96
2023-03-10T10:42:11.606Z,48.47
2023-03-10T10:44:43.236Z,49.14
2023-03-10T10:47:31.568Z,48.99
2023-03-10T10:50:31.758Z,49.18
2023-03-10T10:53:13.752Z,48.83
2023-03-10T10:55:42.405Z,47.71
2023-03-10T10:58:36.825Z,47.61
2023-03-10T11:01:09.754Z,45.36
2023-03-10T11:03:39.081Z,45.86
2023-03-10T11:06:13.154Z,44.84
2023-03-10T11:08:42.849Z,44.38
2023-03-10T11:11:25.392Z,44.53
2023-03-10T11:14:07.335Z,44.06
2023-03-10T11:16:46.955Z,41.91
2023-03-10T11:19:13.443Z,41.48
2023-03-10T11:21:47.497Z,40.77
2023-03-10T11:24:35.031Z,40.27
2023-03-10T11:27:36.936Z,38.25
2023-03-10T11:30:13.244Z,33.72
2023-03-10T11:32:56.357Z,34.73
2023-03-10T11:35:50.166Z,33.63
2023-03-10T11:38:35.504Z,32.71
2023-03-10T11:41:15.992Z,31.59
2023-03-10T11:44:00.717Z,30.04
2023-03-10T11:46:52.252Z,31.19
2023-03-10T11:49:24.201Z,30.99
2023-03-10T11:51:54.644Z,30.30
2023-03-10T11:54:26.710Z,29.11
2023-03-10T11:56:55.163Z,28.99
2023-03-10T11:59:35.315Z,28.53
2023-03-10T12:02:10.856Z,29.29
2023-03-10T12:04:56.034Z,28.25
2023-03-10T12:07:33.452Z,28.27
2023-03-10T12:10:04.302Z,29.05
2023-03-10T12:12:38.933Z,28.16
2023-03-10T12:15:19.271Z,29.59
2023-03-10T12:17:46.732Z,32.06
2023-03-10T12:20:13.225Z,32.20
2023-03-10T12:22:50.152Z,32.75
2023-03-10T12:25:38.299Z,32.91
2023-03-10T12:28:17.186Z,32.24
2023-03-10T12:30:52.198Z,32.67
2023-03-10T12:33:43.611Z,31.92
2023-03-10T12:36:24.021Z,30.68
2023-03-10T12:38:59.105Z,31.47
2023-03-10T12:41:28.598Z,32.93
2023-03-10T12:44:35.794Z,32.37
2023-03-10T12:47:08.220Z,31.69
2023-03-10T12:49:40.790Z,32.82
2023-03-10T12:52:15.809Z,33.18
2023-03-10T12:54:54.130Z,32.41
2023-03-10T12:57:43.022Z,32.41
2023-03-10T13:00:40.639Z,32.95
2023-03-10T13:03:10.125Z,32.11
2023-03-10T13:05:57.269Z,31.54
2023-03-10T13:08:44.714Z,30.42
2023-03-10T13:11:27.676Z,30.77
2023-03-10T13:14:00.152Z,29.67
2023-03-10T13:16:26.768Z,32.19
2023-03-10T13:18:54.585Z,30.45
2023-03-10T13:21:33.817Z,29.93
2023-03-10T13:24:02.615Z,31.18
2023-03-10T13:26:30.227Z,34.94
2023-03-10T13:29:02.626Z,34.97
2023-03-10T13:31:30.982Z,34.73
2023-03-10T13:34:11.498Z,34.66
2023-03-10T13:36:40.137Z,36.16
2023-03-10T13:39:23.475Z,36.71
2023-03-10T13:41:54.396Z,35.14
2023-03-10T13:44:22.425Z,35.57
2023-03-10T13:46:56.096Z,35.19
2023-03-10T13:49:27.639Z,33.64
2023-03-10T13:51:59.538Z,34.68
2023-03-10T13:54:29.833Z,34.36
2023-03-10T13:57:31.512Z,34.31
2023-03-10T13:59:59.351Z,35.51
2023-03-10T14:02:35.533Z,36.08
2023-03-10T14:05:02.131Z,34.92
2023-03-10T14:07:32.718Z,35.62
2023-03-10T14:10:05.120Z,36.51
2023-03-10T14:12:39.721Z,36.76
2023-03-10T14:15:38.518Z,37.39
2023-03-10T14:18:08.148Z,37.44
2023-03-10T14:20:41.006Z,37.78
2023-03-10T14:23:19.902Z,37.29
2023-03-10T14:25:48.305Z,39.03
2023-03-10T14:28:19.509Z,36.88
2023-03-10T14:30:46.175Z,37.50
2023-03-10T14:33:15.173Z,36.97
2023-03-10T14:35:46.024Z,37.83
2023-03-10T14:38:12.923Z,36.81
2023-03-10T14:40:43.245Z,36.84
2023-03-10T14:43:16.645Z,37.44
2023-03-10T14:45:45.457Z,36.42
2023-03-10T14:48:15.339Z,35.32
2023-03-10T14:50:42.063Z,37.26
2023-03-10T14:53:14.461Z,36.65
2023-03-10T14:55:43.421Z,36.40
2023-03-10T14:58:35.085Z,38.96
2023-03-10T15:01:01.862Z,39.21
2023-03-10T15:03:28.597Z,45.80
2023-03-10T15:05:55.160Z,49.47
2023-03-10T15:08:21.785Z,48.56
2023-03-10T15:10:52.824Z,47.40
2023-03-10T15:13:22.284Z,48.28
2023-03-10T15:15:50.205Z,47.92
2023-03-10T15:18:19.832Z,47.19
2023-03-10T15:20:46.805Z,46.33
2023-03-10T15:23:16.516Z,46.84
2023-03-10T15:25:46.137Z,47.19
2023-03-10T15:28:13.589Z,46.38
2023-03-10T15:30:44.138Z,46.98
2023-03-10T15:33:11.011Z,47.19
2023-03-10T15:35:38.418Z,48.64
2023-03-10T15:38:05.088Z,48.94
2023-03-10T15:40:34.923Z,52.56
2023-03-10T15:43:01.977Z,51.81
2023-03-10T15:45:30.388Z,53.75
2023-03-10T15:48:00.380Z,55.72
2023-03-10T15:50:27.606Z,54.79
2023-03-10T15:52:56.615Z,56.19
2023-03-10T15:55:24.342Z,54.60
2023-03-10T15:57:52.327Z,55.69
2023-03-10T16:00:21.744Z,57.46
2023-03-10T16:02:49.197Z,55.15
2023-03-10T16:05:16.165Z,56.90
2023-03-10T16:07:43.199Z,55.09
2023-03-10T16:10:11.537Z,54.49
2023-03-10T16:12:38.111Z,54.87
2023-03-10T16:15:05.438Z,55.97
2023-03-10T16:17:31.942Z,52.67
2023-03-10T16:20:01.955Z,52.87
2023-03-10T16:22:28.527Z,51.95
2023-03-10T16:24:55.080Z,51.24
2023-03-10T16:27:21.708Z,48.58
2023-03-10T16:29:48.720Z,49.38
2023-03-10T16:32:17.574Z,48.15
2023-03-10T16:34:44.288Z,47.82
2023-03-10T16:37:10.917Z,47.00
2023-03-10T16:39:37.743Z,46.26
2023-03-10T16:42:04.383Z,47.61
2023-03-10T16:44:30.897Z,46.39
2023-03-10T16:46:57.461Z,45.63
2023-03-10T16:49:24.023Z,47.17
2023-03-10T16:51:50.608Z,46.62
2023-03-10T16:54:23.055Z,46.32
2023-03-10T16:56:52.348Z,45.31
2023-03-10T16:59:24.999Z,45.57
2023-03-10T17:01:51.857Z,44.66
2023-03-10T17:04:19.602Z,44.64
2023-03-10T17:06:47.575Z,44.26
2023-03-10T17:09:20.663Z,45.24
2023-03-10T17:11:54.856Z,46.43
2023-03-10T17:14:22.625Z,45.17
2023-03-10T17:16:49.409Z,44.62
2023-03-10T17:19:18.635Z,44.65
2023-03-10T17:21:50.050Z,44.21
2023-03-10T17:24:19.232Z,43.54
2023-03-10T17:26:46.479Z,43.46
2023-03-10T17:29:13.274Z,43.77
2023-03-10T17:31:39.948Z,44.03
2023-03-10T17:34:10.845Z,43.61
2023-03-10T17:36:37.806Z,42.81
2023-03-10T17:39:05.260Z,43.63
2023-03-10T17:41:33.907Z,43.18
2023-03-10T17:44:00.449Z,43.76
2023-03-10T17:46:29.690Z,42.93
2023-03-10T17:48:57.068Z,43.14
2023-03-10T17:51:26.120Z,43.03
2023-03-10T17:53:53.875Z,42.15
2023-03-10T17:56:21.912Z,42.41
2023-03-10T17:58:49.662Z,43.07
2023-03-10T18:01:25.991Z,42.77
2023-03-10T18:03:53.160Z,43.34
2023-03-10T18:06:22.757Z,44.00
2023-03-10T18:08:49.946Z,44.20
2023-03-10T18:11:17.490Z,43.00
2023-03-10T18:13:44.457Z,42.86
2023-03-10T18:16:33.370Z,43.46
2023-03-10T18:19:01.306Z,42.19
2023-03-10T18:21:28.020Z,41.24
2023-03-10T18:23:54.851Z,41.58
2023-03-10T18:26:26.155Z,41.80
2023-03-10T18:28:52.789Z,41.94
2023-03-10T18:31:22.338Z,41.69
2023-03-10T18:33:49.565Z,41.29
2023-03-10T18:36:17.936Z,42.26
2023-03-10T18:38:45.970Z,41.63
2023-03-10T18:41:12.871Z,41.88
2023-03-10T18:43:40.096Z,41.28
2023-03-10T18:46:08.208Z,40.67
2023-03-10T18:48:34.787Z,40.13
2023-03-10T18:51:01.390Z,39.93
2023-03-10T18:53:28.891Z,40.64
2023-03-10T18:55:55.790Z,41.58
2023-03-10T18:58:22.826Z,42.81
2023-03-10T19:00:50.289Z,42.05
2023-03-10T19:03:18.536Z,41.76
2023-03-10T19:05:45.525Z,43.69
2023-03-10T19:08:12.252Z,43.41
2023-03-10T19:10:39.361Z,43.49
2023-03-10T19:13:07.422Z,42.41
2023-03-10T19:15:34.349Z,41.63
2023-03-10T19:18:00.889Z,42.72
2023-03-10T19:20:27.450Z,42.34
2023-03-10T19:22:54.010Z,44.46
2023-03-10T19:25:20.626Z,43.25
2023-03-10T19:27:48.875Z,44.16
2023-03-10T19:30:19.834Z,42.63
2023-03-10T19:32:47.780Z,42.80
2023-03-10T19:35:15.180Z,43.56
2023-03-10T19:37:44.530Z,42.77
2023-03-10T19:40:17.049Z,44.58
2023-03-10T19:42:43.772Z,43.24
2023-03-10T19:45:12.336Z,42.00
2023-03-10T19:47:39.183Z,42.99
2023-03-10T19:50:06.576Z,42.66
2023-03-10T19:52:33.322Z,42.20
2023-03-10T19:55:00.123Z,42.30
2023-03-10T19:57:26.743Z,42.67
2023-03-10T19:59:53.279Z,43.26
2023-03-10T20:02:19.877Z,42.80
2023-03-10T20:04:48.229Z,42.84
2023-03-10T20:07:14.896Z,42.74
2023-03-10T20:09:41.467Z,42.87
2023-03-10T20:12:08.026Z,43.41
2023-03-10T20:14:34.671Z,42.31
2023-03-10T20:17:01.224Z,44.01
2023-03-10T20:19:27.795Z,43.87
2023-03-10T20:21:54.371Z,44.54
2023-03-10T20:24:20.936Z,46.06
2023-03-10T20:26:48.572Z,45.29
2023-03-10T20:29:15.365Z,45.13
2023-03-10T20:31:42.018Z,44.61
2023-03-10T20:34:17.139Z,43.32
2023-03-10T20:36:43.911Z,44.91
2023-03-10T20:39:10.932Z,44.73
2023-03-10T20:41:37.446Z,44.27
2023-03-10T20:44:06.422Z,43.25
2023-03-10T20:46:33.196Z,43.34
2023-03-10T20:48:59.734Z,43.77
2023-03-10T20:51:26.258Z,43.39
2023-03-10T20:53:52.839Z,43.91
2023-03-10T20:56:19.453Z,44.25
2023-03-10T20:58:45.985Z,43.36
2023-03-10T21:01:18.667Z,43.32
2023-03-10T21:03:45.484Z,43.24
2023-03-10T21:06:12.021Z,44.83
2023-03-10T21:08:38.668Z,47.50
2023-03-10T21:11:05.265Z,50.13
2023-03-10T21:13:31.835Z,49.54
2023-03-10T21:15:58.557Z,49.24
2023-03-10T21:18:25.971Z,48.90
2023-03-10T21:20:52.581Z,49.26
2023-03-10T21:23:19.254Z,49.38
2023-03-10T21:25:45.891Z,48.91
2023-03-10T21:28:12.427Z,48.33
2023-03-10T21:30:39.160Z,52.32
2023-03-10T21:33:05.914Z,56.98
2023-03-10T21:35:34.248Z,56.72
2023-03-10T21:38:00.971Z,58.91
2023-03-10T21:40:27.603Z,58.50
2023-03-10T21:42:54.188Z,58.21
2023-03-10T21:45:23.864Z,60.29
2023-03-10T21:47:50.394Z,57.23
2023-03-10T21:50:17.698Z,55.52
2023-03-10T21:52:44.710Z,55.78
2023-03-10T21:55:18.617Z,54.66
2023-03-10T21:57:45.175Z,54.08
2023-03-10T22:00:12.799Z,53.55
2023-03-10T22:02:39.407Z,52.21
2023-03-10T22:05:06.575Z,52.08
2023-03-10T22:07:33.534Z,50.93
2023-03-10T22:10:00.118Z,48.57
2023-03-10T22:12:26.713Z,47.76
2023-03-10T22:14:56.312Z,47.92
2023-03-10T22:17:24.607Z,48.10
2023-03-10T22:19:54.565Z,46.87
2023-03-10T22:22:22.402Z,46.58
2023-03-10T22:24:49.493Z,46.52
2023-03-10T22:27:16.226Z,47.23
2023-03-10T22:29:42.952Z,47.84
2023-03-10T22:32:09.528Z,46.54
2023-03-10T22:34:36.040Z,45.78
2023-03-10T22:37:02.623Z,45.20
2023-03-10T22:39:29.173Z,44.15
2023-03-10T22:41:55.750Z,44.77
2023-03-10T22:44:22.850Z,46.30
2023-03-10T22:46:50.126Z,45.76
2023-03-10T22:49:17.388Z,47.08
2023-03-10T22:51:43.914Z,46.68
2023-03-10T22:54:10.449Z,47.17
2023-03-10T22:56:37.050Z,48.86
2023-03-10T22:59:04.302Z,47.98
2023-03-10T23:01:30.931Z,47.01
2023-03-10T23:03:57.550Z,47.15
2023-03-10T23:06:26.187Z,47.70
2023-03-10T23:08:52.810Z,47.05
2023-03-10T23:11:19.389Z,47.02
2023-03-10T23:13:46.041Z,48.59
2023-03-10T23:16:12.615Z,49.97
2023-03-10T23:18:39.404Z,50.22
2023-03-10T23:21:06.869Z,51.70
2023-03-10T23:23:33.660Z,50.35
2023-03-10T23:26:00.239Z,47.98
2023-03-10T23:28:27.481Z,48.55
2023-03-10T23:30:54.258Z,47.42
2023-03-10T23:33:23.245Z,47.05
2023-03-10T23:35:53.686Z,44.90
2023-03-10T23:38:22.454Z,43.78
2023-03-10T23:40:50.511Z,44.25
2023-03-10T23:43:18.144Z,43.27
2023-03-10T23:45:45.007Z,42.64
2023-03-10T23:48:18.514Z,41.25
2023-03-10T23:50:47.446Z,40.74
2023-03-10T23:53:16.222Z,40.89
2023-03-10T23:55:45.311Z,41.62
2023-03-10T23:58:12.891Z,41.90
